San Francisco, California
Traffic Map
Current Weather Conditions
San Francisco, California
Broken Clouds
Broken Clouds
64°
Feels Like: 64°
Wind Chill: 64° Ceiling: 1500
Heat Index: 64° Visibility: 10mi
Dew Point: 58° Wind: 9mph
Humidity: 80% Direction: 270° (W)
Pressure: 29.99in Gusts: 0mph
Raw Report DataKSFO 300556Z 27008KT 10SM FEW012 SCT014 BKN015 18/14 A2999 RMK AO2 SLP157 T01780144 10194 20178 50006
Traffic Incident Summary
Active as of:
Severity:
Category:
InformationThere was an issue retrieving the traffic information for this location. Please try a different location or try again shortly.
Advertisements
Track Severe Weather on mobile